createdAt,value
2023-02-06T00:03:12.902Z,87.54
2023-02-06T00:08:14.840Z,88.71
2023-02-06T00:13:16.888Z,88.33
2023-02-06T00:18:18.575Z,88.50
2023-02-06T00:23:20.261Z,87.77
2023-02-06T00:28:22.181Z,86.63
2023-02-06T00:33:24.641Z,87.67
2023-02-06T00:38:26.440Z,86.21
2023-02-06T00:43:28.138Z,86.02
2023-02-06T00:48:31.607Z,87.15
2023-02-06T00:53:33.755Z,88.12
2023-02-06T00:58:35.501Z,88.19
2023-02-06T01:03:38.031Z,89.51
2023-02-06T01:08:39.658Z,89.75
2023-02-06T01:13:42.289Z,89.00
2023-02-06T01:18:43.996Z,90.46
2023-02-06T01:23:46.934Z,91.00
2023-02-06T01:28:49.085Z,90.92
2023-02-06T01:33:51.810Z,90.50
2023-02-06T01:38:53.600Z,89.65
2023-02-06T01:44:14.878Z,90.20
2023-02-06T01:49:27.632Z,91.71
2023-02-06T01:54:31.694Z,91.17
2023-02-06T01:59:34.631Z,91.44
2023-02-06T02:04:36.409Z,92.11
2023-02-06T02:09:38.229Z,92.38
2023-02-06T02:14:42.562Z,92.42
2023-02-06T02:19:59.480Z,90.26
2023-02-06T02:25:30.466Z,89.35
2023-02-06T02:30:41.307Z,91.04
2023-02-06T02:35:42.957Z,92.53
2023-02-06T02:40:56.089Z,92.95
2023-02-06T02:46:09.074Z,94.40
2023-02-06T02:51:11.679Z,93.97
2023-02-06T02:56:17.456Z,91.84
2023-02-06T03:01:24.582Z,93.08
2023-02-06T03:06:40.402Z,93.05
2023-02-06T03:11:50.786Z,92.69
2023-02-06T03:16:58.107Z,93.14
2023-02-06T03:22:00.964Z,91.50
2023-02-06T03:27:08.628Z,92.00
2023-02-06T03:32:32.370Z,93.46
2023-02-06T03:37:35.722Z,93.64
2023-02-06T03:42:42.458Z,93.81
2023-02-06T03:47:46.547Z,93.84
2023-02-06T03:52:51.113Z,95.20
2023-02-06T03:58:01.473Z,96.07
2023-02-06T04:03:04.805Z,93.92
2023-02-06T04:08:07.252Z,93.25
2023-02-06T04:13:09.006Z,94.26
2023-02-06T04:18:10.700Z,93.52
2023-02-06T04:23:12.361Z,93.01
2023-02-06T04:28:14.378Z,94.42
2023-02-06T04:33:16.519Z,95.13
2023-02-06T04:38:18.750Z,95.98
2023-02-06T04:43:22.104Z,96.83
2023-02-06T04:48:25.986Z,97.20
2023-02-06T04:53:29.775Z,97.77
2023-02-06T04:58:31.548Z,98.26
2023-02-06T05:03:33.507Z,98.32
2023-02-06T05:08:39.770Z,97.58
2023-02-06T05:13:42.436Z,97.22
2023-02-06T05:18:46.670Z,96.35
2023-02-06T05:23:48.410Z,95.87
2023-02-06T05:28:50.138Z,95.12
2023-02-06T05:33:52.690Z,94.85
2023-02-06T05:38:54.744Z,95.95
2023-02-06T05:43:56.451Z,96.18
2023-02-06T05:48:58.743Z,94.27
2023-02-06T05:54:00.971Z,95.48
2023-02-06T05:59:02.694Z,96.24
2023-02-06T06:04:04.504Z,96.68
2023-02-06T06:09:06.288Z,94.91
2023-02-06T06:14:08.478Z,95.44
2023-02-06T06:19:10.275Z,95.98
2023-02-06T06:24:11.946Z,96.20
2023-02-06T06:29:13.770Z,96.08
2023-02-06T06:34:15.470Z,95.90
2023-02-06T06:44:45.055Z,93.60
2023-02-06T06:49:46.746Z,93.67
2023-02-06T06:54:48.522Z,94.03
2023-02-06T06:59:50.983Z,94.53
2023-02-06T07:04:52.658Z,94.88
2023-02-06T07:09:54.349Z,92.22
2023-02-06T07:14:55.998Z,94.76
2023-02-06T07:19:57.679Z,95.17
2023-02-06T07:24:59.326Z,95.43
2023-02-06T07:30:01.006Z,95.31
2023-02-06T07:35:03.074Z,95.37
2023-02-06T07:40:05.680Z,94.80
2023-02-06T07:45:07.708Z,93.48
2023-02-06T07:50:10.240Z,93.94
2023-02-06T07:55:12.050Z,94.38
2023-02-06T08:00:14.365Z,93.58
2023-02-06T08:05:16.125Z,92.86
2023-02-06T08:10:17.960Z,92.69
2023-02-06T08:15:19.585Z,89.82
2023-02-06T08:20:21.247Z,89.89
2023-02-06T08:25:22.963Z,87.80
2023-02-06T08:30:24.846Z,87.08
2023-02-06T08:35:26.639Z,89.98
2023-02-06T08:40:28.313Z,89.96
2023-02-06T08:45:29.935Z,88.35
2023-02-06T08:50:31.580Z,89.10
2023-02-06T08:55:33.267Z,88.38
2023-02-06T09:00:35.020Z,89.87
2023-02-06T09:05:36.962Z,90.09
2023-02-06T09:10:38.881Z,91.50
2023-02-06T09:15:41.508Z,91.62
2023-02-06T09:20:43.221Z,86.98
2023-02-06T09:25:45.662Z,85.96
2023-02-06T09:30:47.441Z,86.48
2023-02-06T09:35:49.163Z,84.81
2023-02-06T09:40:53.296Z,85.07
2023-02-06T09:46:04.629Z,86.89
2023-02-06T09:51:45.110Z,86.44
2023-02-06T09:56:49.646Z,89.67
2023-02-06T10:02:13.076Z,92.87
2023-02-06T10:07:17.570Z,95.79
2023-02-06T10:12:35.876Z,95.82
2023-02-06T10:18:01.188Z,96.38
2023-02-06T10:23:23.796Z,97.70
2023-02-06T10:28:28.723Z,99.04
2023-02-06T10:33:56.387Z,99.54
2023-02-06T10:39:25.995Z,99.77
2023-02-06T10:44:39.128Z,98.74
2023-02-06T10:49:55.372Z,99.38
2023-02-06T10:54:59.470Z,99.76
2023-02-06T11:00:03.509Z,99.15
2023-02-06T11:05:16.136Z,100.00
2023-02-06T11:10:20.697Z,100.00
2023-02-06T11:15:27.466Z,98.68
2023-02-06T11:20:33.288Z,97.98
2023-02-06T11:25:35.485Z,95.68
2023-02-06T11:30:41.335Z,96.75
2023-02-06T11:35:55.475Z,98.46
2023-02-06T11:41:01.519Z,95.48
2023-02-06T11:46:26.845Z,96.91
2023-02-06T11:51:54.001Z,97.30
2023-02-06T11:57:01.952Z,98.21
2023-02-06T12:02:25.191Z,96.58
2023-02-06T12:07:47.147Z,96.48
2023-02-06T12:12:56.314Z,95.83
2023-02-06T12:18:03.988Z,91.87
2023-02-06T12:23:14.810Z,93.88
2023-02-06T12:28:38.658Z,93.43
2023-02-06T12:33:47.839Z,92.67
2023-02-06T12:39:11.750Z,92.79
2023-02-06T12:44:40.812Z,93.65
2023-02-06T12:50:13.739Z,91.10
2023-02-06T12:55:23.465Z,88.38
2023-02-06T13:00:38.195Z,89.98
2023-02-06T13:05:44.344Z,88.26
2023-02-06T13:10:58.370Z,88.45
2023-02-06T13:16:00.686Z,89.56
2023-02-06T13:21:20.933Z,86.63
2023-02-06T13:26:56.495Z,89.90
2023-02-06T13:32:20.844Z,91.25
2023-02-06T13:37:33.618Z,91.94
2023-02-06T13:42:58.339Z,91.90
2023-02-06T13:48:06.013Z,91.34
2023-02-06T13:53:16.705Z,89.75
2023-02-06T13:58:41.056Z,88.99
2023-02-06T14:03:46.075Z,88.84
2023-02-06T14:09:06.504Z,86.34
2023-02-06T14:14:27.360Z,85.14
2023-02-06T14:19:44.363Z,84.36
2023-02-06T14:25:10.719Z,86.60
2023-02-06T14:30:50.781Z,84.25
2023-02-06T14:36:08.679Z,83.61
2023-02-06T14:41:11.002Z,82.60
2023-02-06T14:46:15.764Z,83.97
2023-02-06T14:51:20.364Z,84.87
2023-02-06T14:56:28.725Z,87.04
2023-02-06T15:01:32.796Z,88.00
2023-02-06T15:06:37.714Z,87.58
2023-02-06T15:11:39.752Z,89.41
2023-02-06T15:16:49.330Z,91.06
2023-02-06T15:22:01.645Z,91.23
2023-02-06T15:27:18.570Z,91.35
2023-02-06T15:32:38.593Z,93.39
2023-02-06T15:37:40.443Z,94.38
2023-02-06T15:42:42.502Z,94.96
2023-02-06T15:47:46.077Z,94.64
2023-02-06T15:52:48.240Z,95.45
2023-02-06T15:57:51.597Z,96.82
2023-02-06T16:03:05.028Z,96.35
2023-02-06T16:08:22.325Z,97.40
2023-02-06T16:13:26.038Z,97.11
2023-02-06T16:18:34.270Z,96.40
2023-02-06T16:24:03.180Z,96.42
2023-02-06T16:29:10.829Z,96.43
2023-02-06T16:34:35.152Z,95.64
2023-02-06T16:39:36.879Z,94.76
2023-02-06T16:44:44.749Z,94.06
2023-02-06T16:49:52.042Z,95.66
2023-02-06T16:54:59.046Z,96.38
2023-02-06T17:00:02.135Z,97.76
2023-02-06T17:05:05.015Z,97.33
2023-02-06T17:10:08.050Z,94.85
2023-02-06T17:15:11.973Z,89.85
2023-02-06T17:20:37.209Z,90.91
2023-02-06T17:25:40.688Z,92.65
2023-02-06T17:30:42.524Z,91.45
2023-02-06T17:35:47.225Z,91.14
2023-02-06T17:40:49.172Z,92.00
2023-02-06T17:45:50.961Z,92.81
2023-02-06T17:50:52.841Z,92.66
2023-02-06T17:55:54.538Z,91.50
2023-02-06T18:00:56.244Z,92.63
2023-02-06T18:06:01.985Z,94.37
2023-02-06T18:11:11.703Z,91.62
2023-02-06T18:16:26.158Z,92.33
2023-02-06T18:21:30.450Z,93.32
2023-02-06T18:26:35.624Z,94.73
2023-02-06T18:31:38.091Z,93.81
2023-02-06T18:36:39.857Z,92.98
2023-02-06T18:42:00.538Z,90.48
2023-02-06T18:47:02.307Z,91.13
2023-02-06T18:52:05.234Z,92.08
2023-02-06T18:57:07.304Z,93.82
2023-02-06T19:02:10.883Z,94.12
2023-02-06T19:07:13.752Z,91.88
2023-02-06T19:12:15.498Z,92.20
2023-02-06T19:17:17.257Z,92.82
2023-02-06T19:22:19.001Z,92.99
2023-02-06T19:27:21.646Z,94.36
2023-02-06T19:32:26.000Z,93.07
2023-02-06T19:37:27.755Z,93.36
2023-02-06T19:42:29.468Z,93.43
2023-02-06T19:47:31.172Z,94.25
2023-02-06T19:52:35.252Z,96.08
2023-02-06T19:57:39.631Z,92.40
2023-02-06T20:02:41.574Z,93.75
2023-02-06T20:07:43.278Z,93.57
2023-02-06T20:12:45.226Z,93.33
2023-02-06T20:17:46.902Z,94.57
2023-02-06T20:22:48.612Z,96.58
2023-02-06T20:27:50.381Z,94.69
2023-02-06T20:32:52.138Z,94.47
2023-02-06T20:37:53.866Z,94.65
2023-02-06T20:42:55.612Z,95.12
2023-02-06T20:47:57.350Z,95.83
2023-02-06T20:52:59.182Z,95.61
2023-02-06T20:58:00.832Z,97.28
2023-02-06T21:03:02.646Z,98.73
2023-02-06T21:08:04.584Z,98.70
2023-02-06T21:13:06.398Z,98.71
2023-02-06T21:18:08.186Z,98.81
2023-02-06T21:23:10.327Z,98.78
2023-02-06T21:28:12.154Z,98.91
2023-02-06T21:33:13.887Z,98.68
2023-02-06T21:38:15.753Z,98.33
2023-02-06T21:43:17.549Z,98.80
2023-02-06T21:48:19.287Z,99.55
2023-02-06T21:53:21.853Z,98.71
2023-02-06T21:58:23.523Z,98.21
2023-02-06T22:03:25.444Z,98.83
2023-02-06T22:08:27.117Z,98.71
2023-02-06T22:13:28.902Z,98.27
2023-02-06T22:18:30.558Z,97.56
2023-02-06T22:23:32.484Z,96.82
2023-02-06T22:28:34.593Z,97.50
2023-02-06T22:33:36.973Z,98.20
2023-02-06T22:38:39.485Z,97.63
2023-02-06T22:43:41.897Z,94.50
2023-02-06T22:48:43.643Z,94.92
2023-02-06T22:53:45.659Z,96.22
2023-02-06T22:58:48.783Z,96.21
2023-02-06T23:03:54.688Z,95.42
2023-02-06T23:08:57.799Z,95.77
2023-02-06T23:14:05.880Z,94.09
2023-02-06T23:19:08.280Z,93.99
2023-02-06T23:24:10.769Z,95.13
2023-02-06T23:29:17.770Z,95.90
2023-02-06T23:34:20.569Z,96.71
2023-02-06T23:39:22.212Z,94.53
2023-02-06T23:44:23.867Z,94.21
2023-02-06T23:49:25.482Z,94.11
2023-02-06T23:54:27.105Z,94.89
2023-02-06T23:59:28.791Z,94.96
